createdAt,value
2019-03-29T00:00:13.635Z,21.70
2019-03-29T00:01:13.611Z,19.00
2019-03-29T00:02:13.624Z,20.40
2019-03-29T00:03:13.636Z,19.50
2019-03-29T00:04:13.585Z,19.60
2019-03-29T00:05:13.575Z,20.20
2019-03-29T00:06:13.572Z,21.60
2019-03-29T00:07:13.546Z,19.90
2019-03-29T00:08:13.567Z,21.50
2019-03-29T00:09:13.524Z,19.60
2019-03-29T00:10:13.517Z,19.80
2019-03-29T00:11:13.513Z,24.30
2019-03-29T00:12:13.489Z,20.80
2019-03-29T00:13:14.748Z,18.80
2019-03-29T00:14:13.472Z,20.20
2019-03-29T00:15:13.466Z,21.40
2019-03-29T00:16:13.456Z,21.90
2019-03-29T00:17:13.445Z,19.60
2019-03-29T00:18:13.426Z,20.70
2019-03-29T00:19:13.452Z,21.00
2019-03-29T00:20:13.413Z,20.20
2019-03-29T00:21:13.396Z,22.60
2019-03-29T00:22:13.388Z,19.40
2019-03-29T00:23:13.374Z,20.80
2019-03-29T00:24:13.379Z,22.00
2019-03-29T00:25:13.369Z,21.30
2019-03-29T00:26:13.343Z,21.40
2019-03-29T00:27:13.336Z,18.40
2019-03-29T00:28:13.324Z,18.80
2019-03-29T00:29:13.314Z,20.00
2019-03-29T00:30:13.324Z,21.10
2019-03-29T00:31:13.962Z,20.80
2019-03-29T00:32:13.278Z,18.90
2019-03-29T00:33:13.269Z,22.40
2019-03-29T00:34:13.263Z,22.10
2019-03-29T00:35:13.296Z,20.10
2019-03-29T00:36:13.232Z,19.40
2019-03-29T00:37:13.224Z,23.50
2019-03-29T00:38:13.212Z,21.60
2019-03-29T00:39:13.200Z,20.50
2019-03-29T00:40:13.191Z,18.20
2019-03-29T00:41:13.215Z,19.20
2019-03-29T00:42:13.190Z,20.00
2019-03-29T00:43:13.159Z,20.60
2019-03-29T00:44:13.151Z,17.80
2019-03-29T00:45:13.140Z,22.30
2019-03-29T00:46:13.124Z,19.10
2019-03-29T00:47:13.134Z,19.30
2019-03-29T00:48:13.109Z,22.20
2019-03-29T00:49:13.091Z,21.30
2019-03-29T00:50:13.082Z,20.50
2019-03-29T00:51:13.067Z,21.30
2019-03-29T00:52:13.058Z,19.60
2019-03-29T00:53:13.069Z,20.90
2019-03-29T00:54:13.052Z,22.60
2019-03-29T00:55:13.022Z,21.60
2019-03-29T00:56:13.304Z,22.40
2019-03-29T00:57:13.046Z,19.30
2019-03-29T00:58:13.039Z,19.80
2019-03-29T00:59:12.984Z,18.30
2019-03-29T01:00:13.002Z,22.10
2019-03-29T01:01:12.964Z,19.90
2019-03-29T01:02:12.947Z,17.60
2019-03-29T01:03:12.948Z,23.10
2019-03-29T01:04:12.951Z,22.30
2019-03-29T01:05:12.920Z,19.90
2019-03-29T01:06:13.075Z,18.90
2019-03-29T01:07:12.897Z,18.80
2019-03-29T01:08:12.893Z,20.30
2019-03-29T01:09:12.878Z,19.60
2019-03-29T01:10:12.885Z,19.20
2019-03-29T01:11:12.851Z,20.30
2019-03-29T01:12:12.842Z,21.70
2019-03-29T01:13:12.833Z,18.80
2019-03-29T01:14:12.832Z,18.90
2019-03-29T01:15:12.840Z,18.40
2019-03-29T01:16:12.796Z,19.00
2019-03-29T01:17:12.791Z,16.90
2019-03-29T01:18:12.792Z,19.20
2019-03-29T01:19:12.773Z,19.50
2019-03-29T01:20:12.783Z,16.40
2019-03-29T01:21:13.936Z,20.10
2019-03-29T01:22:12.753Z,17.30
2019-03-29T01:23:12.723Z,19.50
2019-03-29T01:24:12.723Z,20.70
2019-03-29T01:25:12.704Z,18.70
2019-03-29T01:26:12.714Z,17.20
2019-03-29T01:27:12.679Z,18.80
2019-03-29T01:28:12.663Z,20.00
2019-03-29T01:29:12.659Z,17.50
2019-03-29T01:30:12.640Z,19.40
2019-03-29T01:31:12.641Z,17.20
2019-03-29T01:32:12.654Z,18.70
2019-03-29T01:33:12.605Z,18.40
2019-03-29T01:34:12.604Z,19.40
2019-03-29T01:35:12.590Z,17.90
2019-03-29T01:36:12.578Z,19.80
2019-03-29T01:37:12.567Z,18.40
2019-03-29T01:38:21.762Z,17.80
2019-03-29T01:39:13.546Z,22.80
2019-03-29T01:40:12.560Z,19.30
2019-03-29T01:41:12.527Z,16.70
2019-03-29T01:42:12.519Z,19.90
2019-03-29T01:43:12.546Z,21.40
2019-03-29T01:44:12.492Z,21.80
2019-03-29T01:45:12.484Z,19.90
2019-03-29T01:46:12.473Z,18.90
2019-03-29T01:47:12.472Z,19.90
2019-03-29T01:48:12.446Z,19.70
2019-03-29T01:49:12.465Z,17.60
2019-03-29T01:50:12.423Z,20.00
2019-03-29T01:51:12.416Z,22.00
2019-03-29T01:52:12.411Z,19.50
2019-03-29T01:53:12.396Z,20.60
2019-03-29T01:54:12.382Z,20.00
2019-03-29T01:55:12.385Z,21.70
2019-03-29T01:56:12.380Z,24.00
2019-03-29T01:57:12.345Z,22.90
2019-03-29T01:58:12.343Z,18.70
2019-03-29T01:59:12.331Z,21.70
2019-03-29T02:00:12.346Z,20.20
2019-03-29T02:01:12.314Z,19.40
2019-03-29T02:02:12.297Z,21.50
2019-03-29T02:03:12.402Z,22.50
2019-03-29T02:04:12.285Z,20.20
2019-03-29T02:05:12.266Z,20.90
2019-03-29T02:06:12.285Z,22.90
2019-03-29T02:07:12.283Z,19.70
2019-03-29T02:08:12.232Z,20.20
2019-03-29T02:09:12.242Z,18.40
2019-03-29T02:10:12.218Z,23.90
2019-03-29T02:11:12.197Z,20.40
2019-03-29T02:12:12.211Z,22.10
2019-03-29T02:13:12.181Z,20.70
2019-03-29T02:14:12.175Z,20.80
2019-03-29T02:15:12.222Z,19.50
2019-03-29T02:16:12.152Z,19.80
2019-03-29T02:17:12.165Z,18.80
2019-03-29T02:18:12.127Z,21.90
2019-03-29T02:19:12.123Z,19.80
2019-03-29T02:20:12.102Z,23.20
2019-03-29T02:21:12.108Z,21.50
2019-03-29T02:22:12.106Z,20.40
2019-03-29T02:23:12.078Z,21.40
2019-03-29T02:24:12.062Z,22.60
2019-03-29T02:25:12.044Z,20.30
2019-03-29T02:26:12.038Z,19.90
2019-03-29T02:27:12.034Z,22.70
2019-03-29T02:28:12.036Z,22.30
2019-03-29T02:29:12.005Z,22.30
2019-03-29T02:30:11.998Z,25.90
2019-03-29T02:31:11.980Z,20.80
2019-03-29T02:32:12.006Z,22.00
2019-03-29T02:33:11.966Z,18.50
2019-03-29T02:34:11.947Z,19.00
2019-03-29T02:35:12.033Z,21.50
2019-03-29T02:36:11.949Z,20.60
2019-03-29T02:37:11.914Z,21.60
2019-03-29T02:38:12.084Z,22.50
2019-03-29T02:39:11.910Z,21.70
2019-03-29T02:40:11.897Z,22.10
2019-03-29T02:41:11.884Z,24.60
2019-03-29T02:42:11.874Z,25.10
2019-03-29T02:43:11.854Z,23.30
2019-03-29T02:44:11.859Z,23.10
2019-03-29T02:45:11.836Z,28.20
2019-03-29T02:46:11.827Z,26.20
2019-03-29T02:47:11.811Z,24.70
2019-03-29T02:48:11.802Z,26.30
2019-03-29T02:49:13.143Z,26.10
2019-03-29T02:50:11.785Z,27.60
2019-03-29T02:51:11.767Z,25.00
2019-03-29T02:52:11.754Z,29.50
2019-03-29T02:53:11.751Z,27.10
2019-03-29T02:54:11.732Z,27.70
2019-03-29T02:55:11.740Z,27.30
2019-03-29T02:56:11.729Z,26.90
2019-03-29T02:57:11.709Z,25.40
2019-03-29T02:58:11.692Z,29.30
2019-03-29T02:59:11.748Z,27.70
2019-03-29T03:00:11.697Z,27.20
2019-03-29T03:01:11.660Z,30.30
2019-03-29T03:02:11.661Z,27.40
2019-03-29T03:03:11.635Z,29.10
2019-03-29T03:04:11.626Z,25.70
2019-03-29T03:05:11.638Z,26.90
2019-03-29T03:06:11.600Z,27.30
2019-03-29T03:07:11.590Z,26.70
2019-03-29T03:08:11.577Z,29.80
2019-03-29T03:09:13.918Z,31.40
2019-03-29T03:10:11.566Z,27.30
2019-03-29T03:11:11.598Z,28.20
2019-03-29T03:12:11.532Z,31.10
2019-03-29T03:13:11.547Z,26.10
2019-03-29T03:14:11.520Z,25.70
2019-03-29T03:15:11.505Z,28.40
2019-03-29T03:16:11.492Z,27.50
2019-03-29T03:17:11.521Z,30.80
2019-03-29T03:18:11.474Z,30.50
2019-03-29T03:19:11.477Z,30.20
2019-03-29T03:20:14.960Z,30.40
2019-03-29T03:21:11.440Z,29.90
2019-03-29T03:22:11.469Z,29.70
2019-03-29T03:23:11.514Z,27.50
2019-03-29T03:24:11.407Z,31.20
2019-03-29T03:25:11.408Z,31.10
2019-03-29T03:26:11.401Z,33.80
2019-03-29T03:27:11.377Z,33.60
2019-03-29T03:28:11.404Z,33.30
2019-03-29T03:29:11.356Z,32.10
2019-03-29T03:30:11.356Z,33.90
2019-03-29T03:31:11.325Z,31.70
2019-03-29T03:32:11.321Z,34.90
2019-03-29T03:33:11.334Z,35.20
2019-03-29T03:34:11.318Z,36.80
2019-03-29T03:35:11.374Z,34.60
2019-03-29T03:36:11.277Z,39.60
2019-03-29T03:37:11.261Z,38.90
2019-03-29T03:38:11.260Z,39.10
2019-03-29T03:39:11.248Z,36.40
2019-03-29T03:40:11.264Z,36.90
2019-03-29T03:41:11.223Z,38.70
2019-03-29T03:42:11.220Z,40.60
2019-03-29T03:43:11.199Z,46.70
2019-03-29T03:44:11.180Z,40.30
2019-03-29T03:45:11.172Z,45.40
2019-03-29T03:46:11.202Z,43.40
2019-03-29T03:47:11.178Z,39.20
2019-03-29T03:48:11.147Z,43.60
2019-03-29T03:49:11.127Z,43.40
2019-03-29T03:50:11.133Z,41.60
2019-03-29T03:51:11.120Z,41.60
2019-03-29T03:52:11.128Z,43.50
2019-03-29T03:53:11.126Z,46.50
2019-03-29T03:54:11.099Z,43.90
2019-03-29T03:55:11.073Z,42.10
2019-03-29T03:56:11.049Z,43.60
2019-03-29T03:57:11.188Z,46.30
2019-03-29T03:58:11.064Z,44.10
2019-03-29T03:59:11.075Z,44.90
2019-03-29T04:00:11.013Z,47.20
2019-03-29T04:01:10.996Z,47.70
2019-03-29T04:02:10.990Z,43.80
2019-03-29T04:03:10.992Z,44.60
2019-03-29T04:04:11.005Z,43.80
2019-03-29T04:05:10.977Z,46.00
2019-03-29T04:06:10.950Z,50.40
2019-03-29T04:07:10.966Z,47.60
2019-03-29T04:08:10.950Z,47.40
2019-03-29T04:09:10.957Z,49.70
2019-03-29T04:10:10.950Z,46.90
2019-03-29T04:11:10.960Z,50.20
2019-03-29T04:12:10.972Z,49.20
2019-03-29T04:13:10.890Z,47.40
2019-03-29T04:14:10.925Z,47.90
2019-03-29T04:15:10.884Z,50.00
2019-03-29T04:16:10.839Z,45.70
2019-03-29T04:17:10.841Z,45.70
2019-03-29T04:18:15.492Z,49.20
2019-03-29T04:19:11.811Z,47.10
2019-03-29T04:20:10.794Z,52.80
2019-03-29T04:21:10.812Z,45.70
2019-03-29T04:22:10.799Z,45.90
2019-03-29T04:23:10.770Z,51.50
2019-03-29T04:24:10.766Z,48.90
2019-03-29T04:25:10.743Z,47.80
2019-03-29T04:26:10.774Z,51.00
2019-03-29T04:27:10.715Z,49.60
2019-03-29T04:28:10.705Z,48.30
2019-03-29T04:29:10.706Z,48.20
2019-03-29T04:30:10.689Z,46.90
2019-03-29T04:31:10.704Z,47.40
2019-03-29T04:32:10.659Z,45.60
2019-03-29T04:33:11.394Z,46.80
2019-03-29T04:34:10.657Z,44.00
2019-03-29T04:35:10.774Z,46.10
2019-03-29T04:36:10.664Z,47.80
2019-03-29T04:37:10.749Z,44.80
2019-03-29T04:38:10.606Z,46.40
2019-03-29T04:39:10.597Z,53.20
2019-03-29T04:40:10.575Z,48.80
2019-03-29T04:41:10.577Z,51.90
2019-03-29T04:42:10.573Z,46.80
2019-03-29T04:43:10.972Z,48.90
2019-03-29T04:44:10.543Z,49.50
2019-03-29T04:45:10.538Z,47.90
2019-03-29T04:46:10.651Z,48.30
2019-03-29T04:47:10.581Z,49.00
2019-03-29T04:48:10.523Z,46.30
2019-03-29T04:49:10.542Z,46.40
2019-03-29T04:50:10.545Z,46.40
2019-03-29T04:51:11.101Z,47.20
2019-03-29T04:52:10.574Z,45.60
2019-03-29T04:53:10.617Z,44.90
2019-03-29T04:54:10.424Z,48.40
2019-03-29T04:55:10.441Z,41.70
2019-03-29T04:56:10.406Z,42.30
2019-03-29T04:57:10.396Z,43.90
2019-03-29T04:58:10.405Z,46.70
2019-03-29T04:59:10.373Z,42.40
2019-03-29T05:00:10.367Z,39.60
2019-03-29T05:01:10.410Z,43.70
2019-03-29T05:02:10.349Z,42.00
2019-03-29T05:03:10.455Z,42.30
2019-03-29T05:04:10.311Z,41.10
2019-03-29T05:05:10.302Z,40.70
2019-03-29T05:06:10.322Z,42.70
2019-03-29T05:07:10.307Z,41.00
2019-03-29T05:08:10.277Z,41.70
2019-03-29T05:09:10.262Z,44.30
2019-03-29T05:10:21.050Z,37.40
2019-03-29T05:11:11.233Z,41.50
2019-03-29T05:12:10.250Z,39.60
2019-03-29T05:13:10.218Z,38.50
2019-03-29T05:14:10.207Z,37.50
2019-03-29T05:15:10.201Z,38.30
2019-03-29T05:16:10.201Z,38.90
2019-03-29T05:17:10.195Z,36.50
2019-03-29T05:18:10.184Z,36.30
2019-03-29T05:19:10.154Z,37.10
2019-03-29T05:20:10.151Z,37.00
2019-03-29T05:21:10.134Z,34.70
2019-03-29T05:22:10.204Z,34.30
2019-03-29T05:23:10.140Z,33.20
2019-03-29T05:24:10.115Z,39.60
2019-03-29T05:25:10.084Z,35.40
2019-03-29T05:26:10.081Z,31.30
2019-03-29T05:27:10.077Z,32.20
2019-03-29T05:28:10.062Z,33.90
2019-03-29T05:29:10.078Z,29.20
2019-03-29T05:30:10.037Z,31.60
2019-03-29T05:31:10.021Z,30.30
2019-03-29T05:32:10.018Z,31.00
2019-03-29T05:33:10.023Z,31.70
2019-03-29T05:34:10.032Z,32.20
2019-03-29T05:35:10.006Z,30.50
2019-03-29T05:36:09.969Z,30.00
2019-03-29T05:37:09.966Z,29.40
2019-03-29T05:38:09.950Z,32.40
2019-03-29T05:39:09.941Z,31.70
2019-03-29T05:40:09.920Z,30.90
2019-03-29T05:41:09.948Z,29.50
2019-03-29T05:42:09.906Z,31.60
2019-03-29T05:43:09.928Z,29.60
2019-03-29T05:44:09.895Z,30.50
2019-03-29T05:45:09.875Z,31.80
2019-03-29T05:46:09.868Z,30.60
2019-03-29T05:47:09.884Z,30.20
2019-03-29T05:48:09.842Z,31.80
2019-03-29T05:49:09.832Z,27.20
2019-03-29T05:50:09.818Z,27.40
2019-03-29T05:51:09.806Z,28.50
2019-03-29T05:52:09.792Z,28.30
2019-03-29T05:53:09.800Z,27.20
2019-03-29T05:54:09.772Z,26.90
2019-03-29T05:55:09.775Z,28.20
2019-03-29T05:56:09.759Z,27.10
2019-03-29T05:57:09.746Z,28.20
2019-03-29T05:58:09.755Z,26.80
2019-03-29T05:59:09.718Z,28.50
2019-03-29T06:00:09.714Z,26.70
2019-03-29T06:01:09.702Z,26.70
2019-03-29T06:02:09.701Z,29.10
2019-03-29T06:03:10.194Z,26.50
2019-03-29T06:04:09.710Z,27.10
2019-03-29T06:05:09.654Z,27.40
2019-03-29T06:06:09.673Z,26.70
2019-03-29T06:07:09.643Z,26.00
2019-03-29T06:08:09.655Z,28.70
2019-03-29T06:09:09.634Z,29.50
2019-03-29T06:10:09.625Z,27.20
2019-03-29T06:11:09.589Z,29.90
2019-03-29T06:12:09.587Z,29.20
2019-03-29T06:13:09.611Z,29.40
2019-03-29T06:14:09.579Z,28.70
2019-03-29T06:15:09.588Z,28.60
2019-03-29T06:16:09.542Z,28.90
2019-03-29T06:17:09.523Z,28.40
2019-03-29T06:18:09.514Z,28.40
2019-03-29T06:19:09.509Z,29.90
2019-03-29T06:20:09.504Z,31.80
2019-03-29T06:21:09.497Z,28.20
2019-03-29T06:22:09.475Z,32.40
2019-03-29T06:23:09.464Z,30.20
2019-03-29T06:24:09.446Z,29.40
2019-03-29T06:25:09.450Z,32.60
2019-03-29T06:26:09.455Z,33.00
2019-03-29T06:27:09.416Z,30.40
2019-03-29T06:28:09.412Z,33.40
2019-03-29T06:29:09.395Z,30.70
2019-03-29T06:30:09.386Z,32.50
2019-03-29T06:31:09.379Z,30.30
2019-03-29T06:32:09.394Z,30.10
2019-03-29T06:33:09.353Z,29.40
2019-03-29T06:34:09.348Z,31.20
2019-03-29T06:35:09.343Z,39.40
2019-03-29T06:36:09.334Z,31.20
2019-03-29T06:37:09.322Z,33.30
2019-03-29T06:38:09.324Z,31.80
2019-03-29T06:39:09.288Z,35.80
2019-03-29T06:40:09.277Z,31.30
2019-03-29T06:41:09.275Z,32.90
2019-03-29T06:42:09.321Z,32.10
2019-03-29T06:43:09.270Z,32.80
2019-03-29T06:44:09.239Z,34.40
2019-03-29T06:45:09.232Z,34.20
2019-03-29T06:46:09.466Z,33.10
2019-03-29T06:47:09.243Z,32.60
2019-03-29T06:48:10.412Z,31.80
2019-03-29T06:49:09.904Z,33.80
2019-03-29T06:50:09.434Z,31.30
2019-03-29T06:51:09.304Z,33.30
2019-03-29T06:52:09.382Z,33.10
2019-03-29T06:53:09.153Z,31.60
2019-03-29T06:54:09.350Z,31.30
2019-03-29T06:55:09.380Z,32.10
2019-03-29T06:56:09.117Z,31.60
2019-03-29T06:57:09.257Z,33.50
2019-03-29T06:58:09.130Z,33.70
2019-03-29T06:59:09.307Z,31.50
2019-03-29T07:00:09.242Z,31.40
2019-03-29T07:01:09.559Z,33.50
2019-03-29T07:02:09.070Z,32.70
2019-03-29T07:03:09.144Z,31.70
2019-03-29T07:04:09.273Z,32.00
2019-03-29T07:05:09.383Z,33.80
2019-03-29T07:06:09.112Z,35.10
2019-03-29T07:07:09.043Z,33.30
2019-03-29T07:08:09.081Z,32.70
2019-03-29T07:09:09.042Z,34.30
2019-03-29T07:10:09.289Z,33.20
2019-03-29T07:11:17.340Z,37.50
2019-03-29T07:12:10.173Z,36.90
2019-03-29T07:13:08.982Z,36.50
2019-03-29T07:14:08.964Z,32.80
2019-03-29T07:15:09.136Z,34.90
2019-03-29T07:16:08.924Z,32.80
2019-03-29T07:17:10.424Z,36.20
2019-03-29T07:18:09.242Z,34.20
2019-03-29T07:19:08.986Z,35.70
2019-03-29T07:20:09.086Z,34.90
2019-03-29T07:21:20.759Z,35.50
2019-03-29T07:22:10.045Z,35.10
2019-03-29T07:23:09.089Z,33.20
2019-03-29T07:24:08.883Z,32.40
2019-03-29T07:25:08.813Z,32.20
2019-03-29T07:26:09.627Z,34.80
2019-03-29T07:27:08.768Z,33.70
2019-03-29T07:28:08.973Z,36.20
2019-03-29T07:29:08.827Z,34.20
2019-03-29T07:30:08.733Z,35.60
2019-03-29T07:31:08.918Z,37.40
2019-03-29T07:32:08.719Z,35.20
2019-03-29T07:33:09.226Z,36.10
2019-03-29T07:34:08.688Z,35.90
2019-03-29T07:35:08.699Z,35.50
2019-03-29T07:36:08.671Z,34.10
2019-03-29T07:37:08.664Z,36.50
2019-03-29T07:38:08.835Z,38.90
2019-03-29T07:39:08.818Z,37.10
2019-03-29T07:40:08.700Z,36.10
2019-03-29T07:41:08.851Z,36.60
2019-03-29T07:42:08.929Z,33.50
2019-03-29T07:43:08.604Z,31.90
2019-03-29T07:44:08.592Z,33.20
2019-03-29T07:45:10.330Z,35.60
2019-03-29T07:46:08.660Z,34.20
2019-03-29T07:47:08.555Z,34.60
2019-03-29T07:48:08.545Z,34.90
2019-03-29T07:49:08.532Z,35.40
2019-03-29T07:50:08.530Z,34.20
2019-03-29T07:51:08.539Z,33.90
2019-03-29T07:52:09.031Z,32.70
2019-03-29T07:53:08.511Z,32.00
2019-03-29T07:54:08.492Z,31.90
2019-03-29T07:55:08.466Z,32.40
2019-03-29T07:56:08.470Z,36.00
2019-03-29T07:57:08.442Z,33.80
2019-03-29T07:58:08.464Z,33.60
2019-03-29T07:59:08.425Z,29.50
2019-03-29T08:00:08.420Z,32.30
2019-03-29T08:01:08.696Z,32.10
2019-03-29T08:02:08.584Z,30.70
2019-03-29T08:03:08.380Z,32.90
2019-03-29T08:04:08.381Z,34.30
2019-03-29T08:05:08.351Z,32.40
2019-03-29T08:06:08.350Z,32.00
2019-03-29T08:07:08.332Z,32.10
2019-03-29T08:08:22.799Z,32.10
2019-03-29T08:09:21.642Z,30.90
2019-03-29T08:10:18.948Z,29.80
2019-03-29T08:11:09.295Z,30.80
2019-03-29T08:12:08.290Z,32.20
2019-03-29T08:13:08.276Z,30.30
2019-03-29T08:14:08.264Z,30.10
2019-03-29T08:15:09.791Z,28.60
2019-03-29T08:16:08.240Z,28.60
2019-03-29T08:17:08.241Z,31.90
2019-03-29T08:18:08.233Z,30.20
2019-03-29T08:19:08.213Z,28.20
2019-03-29T08:20:37.642Z,30.80
2019-03-29T08:21:09.209Z,30.20
2019-03-29T08:22:08.173Z,29.90
2019-03-29T08:23:08.253Z,30.40
2019-03-29T08:24:08.163Z,30.50
2019-03-29T08:25:08.137Z,31.30
2019-03-29T08:26:08.129Z,33.60
2019-03-29T08:27:08.167Z,30.30
2019-03-29T08:28:08.126Z,28.10
2019-03-29T08:29:08.105Z,29.60
2019-03-29T08:30:08.122Z,30.60
2019-03-29T08:31:08.157Z,31.30
2019-03-29T08:32:08.093Z,29.40
2019-03-29T08:33:08.107Z,32.80
2019-03-29T08:34:08.075Z,32.70
2019-03-29T08:35:08.060Z,33.60
2019-03-29T08:36:08.064Z,31.90
2019-03-29T08:37:08.020Z,33.30
2019-03-29T08:38:08.019Z,33.90
2019-03-29T08:39:10.261Z,31.70
2019-03-29T08:40:07.981Z,33.50
2019-03-29T08:41:07.970Z,32.20
2019-03-29T08:42:08.712Z,34.80
2019-03-29T08:43:07.948Z,29.90
2019-03-29T08:44:10.278Z,33.00
2019-03-29T08:45:07.952Z,32.80
2019-03-29T08:46:07.981Z,32.30
2019-03-29T08:47:07.911Z,30.50
2019-03-29T08:48:07.897Z,31.60
2019-03-29T08:49:07.905Z,29.80
2019-03-29T08:50:07.908Z,31.10
2019-03-29T08:51:07.867Z,30.40
2019-03-29T08:52:07.869Z,28.90
2019-03-29T08:53:07.902Z,30.00
2019-03-29T08:54:07.829Z,32.30
2019-03-29T08:55:07.820Z,28.50
2019-03-29T08:56:07.837Z,29.90
2019-03-29T08:57:10.546Z,29.50
2019-03-29T08:58:07.796Z,32.50
2019-03-29T08:59:07.788Z,30.80
2019-03-29T09:00:07.809Z,28.80
2019-03-29T09:01:07.762Z,29.00
2019-03-29T09:02:07.762Z,28.10
2019-03-29T09:03:07.728Z,27.60
2019-03-29T09:04:07.742Z,30.30
2019-03-29T09:05:07.714Z,29.40
2019-03-29T09:06:07.774Z,30.30
2019-03-29T09:07:07.694Z,29.40
2019-03-29T09:08:07.679Z,29.20
2019-03-29T09:09:07.675Z,30.80
2019-03-29T09:10:07.719Z,27.40
2019-03-29T09:11:07.882Z,29.40
2019-03-29T09:12:14.274Z,28.10
2019-03-29T09:13:08.649Z,27.50
2019-03-29T09:14:07.616Z,28.90
2019-03-29T09:15:07.604Z,26.70
2019-03-29T09:16:07.642Z,29.20
2019-03-29T09:17:07.577Z,29.50
2019-03-29T09:18:07.602Z,28.70
2019-03-29T09:19:07.784Z,29.40
2019-03-29T09:20:10.441Z,28.70
2019-03-29T09:21:07.542Z,28.40
2019-03-29T09:22:07.535Z,28.00
2019-03-29T09:23:10.244Z,27.90
2019-03-29T09:24:20.770Z,27.60
2019-03-29T09:25:08.511Z,28.10
2019-03-29T09:26:07.533Z,29.10
2019-03-29T09:27:07.514Z,28.00
2019-03-29T09:28:07.713Z,27.80
2019-03-29T09:29:07.455Z,27.60
2019-03-29T09:30:07.469Z,32.00
2019-03-29T09:31:07.463Z,27.60
2019-03-29T09:32:07.419Z,28.40
2019-03-29T09:33:07.414Z,28.00
2019-03-29T09:34:07.453Z,30.60
2019-03-29T09:35:07.441Z,31.80
2019-03-29T09:36:07.379Z,30.00
2019-03-29T09:37:07.374Z,29.60
2019-03-29T09:38:07.422Z,29.50
2019-03-29T09:39:07.457Z,27.80
2019-03-29T09:40:07.343Z,32.80
2019-03-29T09:41:07.453Z,29.50
2019-03-29T09:42:09.520Z,30.10
2019-03-29T09:43:08.181Z,30.50
2019-03-29T09:44:07.299Z,31.40
2019-03-29T09:45:07.306Z,26.90
2019-03-29T09:46:07.276Z,29.00
2019-03-29T09:47:07.282Z,31.30
2019-03-29T09:48:07.255Z,29.90
2019-03-29T09:49:08.472Z,31.00
2019-03-29T09:50:10.151Z,31.90
2019-03-29T09:51:07.331Z,30.90
2019-03-29T09:52:07.291Z,31.80
2019-03-29T09:53:07.204Z,30.50
2019-03-29T09:54:07.180Z,32.80
2019-03-29T09:55:07.180Z,32.30
2019-03-29T09:56:07.192Z,31.30
2019-03-29T09:57:10.009Z,31.80
2019-03-29T09:58:07.170Z,32.20
2019-03-29T09:59:07.125Z,32.40
2019-03-29T10:00:18.026Z,35.10
2019-03-29T10:01:08.197Z,34.80
2019-03-29T10:02:07.132Z,31.90
2019-03-29T10:03:07.082Z,35.10
2019-03-29T10:04:07.100Z,35.20
2019-03-29T10:05:07.166Z,33.80
2019-03-29T10:06:07.053Z,33.40
2019-03-29T10:07:07.124Z,34.60
2019-03-29T10:08:07.029Z,32.60
2019-03-29T10:09:07.051Z,35.90
2019-03-29T10:10:07.112Z,32.90
2019-03-29T10:11:06.995Z,31.90
2019-03-29T10:12:06.985Z,31.30
2019-03-29T10:13:07.055Z,34.20
2019-03-29T10:14:07.022Z,35.00
2019-03-29T10:15:06.953Z,35.10
2019-03-29T10:16:06.993Z,32.80
2019-03-29T10:17:06.930Z,32.20
2019-03-29T10:18:06.919Z,35.10
2019-03-29T10:19:07.185Z,32.90
2019-03-29T10:20:06.904Z,34.90
2019-03-29T10:21:06.973Z,37.00
2019-03-29T10:22:07.000Z,34.50
2019-03-29T10:23:06.902Z,33.20
2019-03-29T10:24:06.891Z,34.40
2019-03-29T10:25:18.612Z,35.00
2019-03-29T10:26:07.837Z,35.90
2019-03-29T10:27:06.897Z,36.20
2019-03-29T10:28:06.852Z,36.40
2019-03-29T10:29:06.805Z,36.50
2019-03-29T10:30:06.804Z,36.10
2019-03-29T10:31:06.798Z,36.20
2019-03-29T10:32:09.455Z,35.50
2019-03-29T10:33:06.835Z,34.30
2019-03-29T10:34:06.862Z,35.00
2019-03-29T10:35:06.737Z,37.40
2019-03-29T10:36:06.734Z,35.30
2019-03-29T10:37:06.712Z,34.80
2019-03-29T10:38:06.707Z,37.10
2019-03-29T10:39:06.728Z,37.80
2019-03-29T10:40:06.769Z,38.40
2019-03-29T10:41:06.757Z,36.40
2019-03-29T10:42:06.675Z,38.50
2019-03-29T10:43:06.653Z,39.10
2019-03-29T10:44:06.666Z,35.00
2019-03-29T10:45:06.665Z,36.20
2019-03-29T10:46:06.636Z,37.90
2019-03-29T10:47:06.603Z,37.80
2019-03-29T10:48:06.597Z,38.10
2019-03-29T10:49:06.593Z,42.10
2019-03-29T10:50:06.694Z,39.80
2019-03-29T10:51:08.340Z,36.40
2019-03-29T10:52:06.564Z,35.60
2019-03-29T10:53:06.803Z,34.60
2019-03-29T10:54:06.555Z,37.10
2019-03-29T10:55:06.613Z,34.60
2019-03-29T10:56:06.509Z,36.30
2019-03-29T10:57:06.541Z,34.60
2019-03-29T10:58:09.468Z,36.50
2019-03-29T10:59:06.607Z,36.30
2019-03-29T11:00:06.547Z,36.50
2019-03-29T11:01:06.501Z,36.80
2019-03-29T11:02:06.437Z,37.70
2019-03-29T11:03:06.650Z,36.40
2019-03-29T11:04:06.430Z,36.50
2019-03-29T11:05:06.484Z,36.70
2019-03-29T11:06:06.700Z,37.40
2019-03-29T11:07:06.470Z,36.60
2019-03-29T11:08:06.503Z,39.10
2019-03-29T11:09:06.492Z,37.30
2019-03-29T11:10:06.614Z,38.60
2019-03-29T11:11:06.507Z,38.60
2019-03-29T11:12:06.806Z,37.70
2019-03-29T11:13:13.079Z,37.00
2019-03-29T11:14:07.435Z,36.20
2019-03-29T11:15:06.867Z,36.80
2019-03-29T11:16:06.297Z,36.90
2019-03-29T11:17:06.334Z,36.20
2019-03-29T11:18:06.444Z,37.30
2019-03-29T11:19:06.545Z,38.70
2019-03-29T11:20:06.375Z,39.10
2019-03-29T11:21:06.239Z,40.20
2019-03-29T11:22:06.398Z,39.90
2019-03-29T11:23:06.277Z,39.60
2019-03-29T11:24:09.140Z,39.90
2019-03-29T11:25:06.203Z,40.00
2019-03-29T11:26:06.208Z,39.60
2019-03-29T11:27:06.219Z,39.20
2019-03-29T11:28:06.208Z,39.00
2019-03-29T11:29:06.272Z,37.30
2019-03-29T11:30:06.136Z,40.50
2019-03-29T11:31:06.129Z,38.40
2019-03-29T11:32:06.200Z,39.70
2019-03-29T11:33:06.118Z,38.00
2019-03-29T11:34:06.121Z,38.40
2019-03-29T11:35:06.109Z,38.10
2019-03-29T11:36:06.079Z,40.30
2019-03-29T11:37:06.071Z,40.40
2019-03-29T11:38:06.271Z,41.20
2019-03-29T11:39:06.293Z,41.50
2019-03-29T11:40:06.073Z,38.60
2019-03-29T11:41:06.187Z,40.20
2019-03-29T11:42:06.058Z,43.70
2019-03-29T11:43:06.102Z,41.10
2019-03-29T11:44:06.015Z,41.50
2019-03-29T11:45:05.996Z,42.30
2019-03-29T11:46:06.051Z,40.20
2019-03-29T11:47:06.047Z,41.20
2019-03-29T11:48:08.861Z,39.90
2019-03-29T11:49:06.085Z,41.30
2019-03-29T11:50:05.985Z,41.50
2019-03-29T11:51:18.626Z,40.50
2019-03-29T11:52:07.004Z,42.50
2019-03-29T11:53:05.894Z,41.30
2019-03-29T11:54:06.004Z,41.90
2019-03-29T11:55:05.869Z,40.40
2019-03-29T11:56:05.946Z,41.50
2019-03-29T11:57:06.058Z,40.30
2019-03-29T11:58:05.897Z,39.60
2019-03-29T11:59:05.891Z,39.00
2019-03-29T12:00:06.113Z,41.30
2019-03-29T12:01:05.811Z,39.90
2019-03-29T12:02:05.952Z,42.30
2019-03-29T12:03:08.861Z,39.20
2019-03-29T12:04:05.886Z,41.60
2019-03-29T12:05:05.763Z,39.80
2019-03-29T12:06:05.808Z,40.90
2019-03-29T12:07:05.734Z,40.70
2019-03-29T12:08:05.726Z,40.10
2019-03-29T12:09:05.754Z,39.80
2019-03-29T12:10:05.709Z,41.10
2019-03-29T12:11:05.830Z,42.90
2019-03-29T12:12:05.690Z,42.00
2019-03-29T12:13:05.694Z,42.00
2019-03-29T12:14:05.670Z,41.90
2019-03-29T12:15:05.653Z,42.50
2019-03-29T12:16:05.663Z,40.60
2019-03-29T12:17:05.665Z,38.20
2019-03-29T12:18:05.622Z,39.40
2019-03-29T12:19:05.603Z,38.90
2019-03-29T12:20:05.589Z,37.50
2019-03-29T12:21:05.584Z,41.90
2019-03-29T12:22:05.594Z,41.10
2019-03-29T12:23:05.587Z,40.20
2019-03-29T12:24:05.552Z,42.80
2019-03-29T12:25:05.631Z,40.90
2019-03-29T12:26:05.534Z,41.70
2019-03-29T12:27:05.542Z,40.70
2019-03-29T12:28:05.684Z,40.90
2019-03-29T12:29:05.522Z,41.90
2019-03-29T12:30:05.490Z,42.20
2019-03-29T12:31:05.496Z,41.00
2019-03-29T12:32:05.460Z,40.40
2019-03-29T12:33:05.450Z,43.30
2019-03-29T12:34:05.525Z,41.90
2019-03-29T12:35:05.469Z,41.50
2019-03-29T12:36:05.447Z,42.30
2019-03-29T12:37:05.414Z,41.10
2019-03-29T12:38:05.400Z,42.00
2019-03-29T12:39:05.385Z,41.20
2019-03-29T12:40:05.413Z,42.30
2019-03-29T12:41:05.465Z,43.80
2019-03-29T12:42:05.369Z,40.40
2019-03-29T12:43:05.377Z,41.80
2019-03-29T12:44:05.330Z,43.20
2019-03-29T12:45:05.329Z,42.90
2019-03-29T12:46:05.336Z,44.60
2019-03-29T12:47:05.293Z,42.60
2019-03-29T12:48:05.321Z,42.90
2019-03-29T12:49:05.465Z,41.00
2019-03-29T12:50:05.340Z,42.60
2019-03-29T12:51:05.265Z,43.20
2019-03-29T12:52:05.305Z,43.40